Quick Links (Output Below):   Max & Min Temps   /   Climate Reports   /   Zone Forecasts
River Forecasts   /   Forestry Forecasts   /   Aviation Forecasts   /   Radars   /   Features

Terminal Aerodrome Forecast (Arkadelphia)

Pick a Site:
Arkadelphia | El Dorado | Fayetteville | Fort Smith | Harrison | Highfill | Hot Springs | Jonesboro
Little Rock | Monticello | Mountain Home | Pine Bluff | Texarkana
 Forecast 

KADF 201140Z 2012/2112 VRB03KT 6SM BR SCT120 SCT250
      TEMPO 2012/2013 2SM BR BKN002
     FM201400 26004KT P6SM SCT060 BKN120
      TEMPO 2018/2022 BKN060
     FM210100 00000KT P6SM SCT120 SCT250
      TEMPO 2108/2112 4SM BR=


 Latest METARs (Observations) 
How to Decode METARs
13Z KADF 201256Z AUTO 00000KT 10SM CLR 09/09 A3011 RMK AO2 T00880088
         SLP212
         
12Z KADF 201156Z AUTO 00000KT 9SM CLR 09/09 A3010 RMK AO2 53007
         T00880088 10105 20088 SLP208
         
11Z KADF 201056Z AUTO 00000KT 5SM BR FEW002 09/09 A3009 RMK AO2
         T00880088 SLP202
         
10Z KADF 200956Z AUTO 00000KT 10SM CLR 09/09 A3008 RMK AO2 T00940094
         SLP199
         
09Z KADF 200856Z AUTO 00000KT 8SM CLR 09/09 A3008 RMK AO2 57007
         T00940094 SLP199
         
08Z KADF 200756Z AUTO 00000KT 3SM BR FEW002 10/10 A3009 RMK AO2
         T01000100 SLP204
         
07Z KADF 200656Z AUTO 00000KT 9SM FEW002 09/09 A3009 RMK AO2 T00940094
         SLP203
         
06Z KADF 200556Z AUTO 00000KT 3/4SM BR CLR 11/11 A3010 RMK AO2 58004
         T01050105 10155 20105 SLP206
         
05Z KADF 200456Z AUTO 00000KT 10SM CLR 11/11 A3011 RMK AO2 T01110111
         402110088 SLP209
         
04Z KADF 200356Z AUTO 00000KT 7SM CLR 12/12 A3012 RMK AO2 T01160116
         SLP212
         
***** Today's Observations (Above) *****


Back to Main Page
http://www.srh.noaa.gov/lzk/qfcst.php

USA.gov is the U.S. government's official web portal to all federal, state and local government web resources and services.